Time;durP1;ratioP1;P1;durP2;ratioP2;P2;SDS_P1;SDS_P2;PMS_P1;PMS_P2;Temp;Humidity;BMP_temperature;BMP_pressure;BME280_temperature;BME280_humidity;BME280_pressure;Samples;Min_cycle;Max_cycle;Signal;HPM_P1;HPM_P2
2021/12/06 00:00:45;;;;;;;22.67;5.88;;;4.70;99.90;;;;;;4913587;29;20522;-68
2021/12/06 00:03:14;;;;;;;22.67;6.82;;;4.60;99.90;;;;;;4905328;29;20712;-67
2021/12/06 00:05:40;;;;;;;29.88;7.40;;;4.60;99.90;;;;;;4912673;29;20056;-67
2021/12/06 00:08:06;;;;;;;22.50;7.25;;;4.70;99.90;;;;;;4913901;29;20086;-69
2021/12/06 00:10:32;;;;;;;26.20;7.90;;;4.80;99.90;;;;;;4912875;29;20439;-68
2021/12/06 00:12:58;;;;;;;24.77;6.63;;;4.70;99.90;;;;;;4911470;29;20055;-67
2021/12/06 00:15:26;;;;;;;25.60;6.63;;;4.70;99.90;;;;;;4915136;29;20056;-69
2021/12/06 00:17:52;;;;;;;21.90;6.55;;;4.70;99.90;;;;;;4914475;29;20123;-68
2021/12/06 00:20:18;;;;;;;27.65;6.82;;;4.60;99.90;;;;;;4914072;29;20099;-69
2021/12/06 00:22:43;;;;;;;29.08;6.30;;;4.50;99.90;;;;;;4912110;29;20522;-71
2021/12/06 00:25:10;;;;;;;20.73;5.22;;;4.60;99.90;;;;;;4914285;29;20040;-68
2021/12/06 00:27:39;;;;;;;15.70;4.97;;;4.60;99.90;;;;;;4912653;29;20529;-68
2021/12/06 00:30:11;;;;;;;14.27;4.72;;;4.60;99.90;;;;;;4914051;29;20083;-68
2021/12/06 00:32:37;;;;;;;23.05;5.60;;;4.60;99.90;;;;;;4915040;29;20031;-68
2021/12/06 00:35:04;;;;;;;18.52;4.93;;;4.60;99.90;;;;;;4911099;29;20028;-67
2021/12/06 00:37:34;;;;;;;22.50;5.95;;;4.60;99.90;;;;;;4903888;29;20047;-69
2021/12/06 00:40:06;;;;;;;19.73;5.15;;;4.70;99.90;;;;;;4910346;29;20039;-68
2021/12/06 00:42:33;;;;;;;18.60;5.15;;;4.60;99.90;;;;;;4909779;29;20024;-69
2021/12/06 00:45:04;;;;;;;16.17;5.03;;;4.70;99.90;;;;;;4911155;29;20471;-67
2021/12/06 00:47:29;;;;;;;22.15;5.65;;;4.70;99.90;;;;;;4909393;29;20031;-70
2021/12/06 00:49:55;;;;;;;18.63;4.88;;;4.70;99.90;;;;;;4914589;29;20387;-67
2021/12/06 00:52:21;;;;;;;18.00;4.72;;;4.70;99.90;;;;;;4914265;29;20032;-67
2021/12/06 00:54:47;;;;;;;;;;;4.80;99.90;;;;;;4908926;29;20037;-68
2021/12/06 00:57:14;;;;;;;20.75;5.78;;;4.90;99.90;;;;;;4912185;29;20484;-70
2021/12/06 00:59:40;;;;;;;18.58;4.95;;;4.80;99.90;;;;;;4913930;29;20032;-67
2021/12/06 01:02:07;;;;;;;23.83;5.18;;;4.80;99.90;;;;;;4912573;29;20538;-70
2021/12/06 01:04:36;;;;;;;21.73;5.32;;;4.80;99.90;;;;;;4911514;29;20040;-69
2021/12/06 01:07:03;;;;;;;22.40;5.30;;;4.90;99.90;;;;;;4917273;29;20028;-68
2021/12/06 01:09:29;;;;;;;17.67;4.90;;;4.90;99.90;;;;;;4929215;29;20031;-68
2021/12/06 01:11:55;;;;;;;19.33;4.90;;;5.00;99.90;;;;;;4910239;29;20036;-69
2021/12/06 01:14:20;;;;;;;19.60;5.10;;;4.90;99.90;;;;;;4914640;29;20084;-69
2021/12/06 01:16:47;;;;;;;20.38;5.45;;;4.90;99.90;;;;;;4912729;29;20484;-66
2021/12/06 01:19:14;;;;;;;20.55;5.18;;;4.90;99.90;;;;;;4905297;29;20032;-67
2021/12/06 01:21:58;;;;;;;19.35;5.20;;;4.80;99.90;;;;;;4911013;29;20119;-68
2021/12/06 01:24:29;;;;;;;22.58;5.20;;;4.90;99.90;;;;;;4912889;29;20035;-68
2021/12/06 01:32:03;;;;;;;17.92;5.30;;;4.90;99.90;;;;;;4912202;29;20032;-68
2021/12/06 01:39:54;;;;;;;41.05;9.48;;;4.70;99.90;;;;;;4911639;29;20101;-69
2021/12/06 01:42:20;;;;;;;193.45;41.45;;;4.60;99.90;;;;;;4915543;29;20539;-68
2021/12/06 01:44:49;;;;;;;109.55;23.80;;;4.60;99.90;;;;;;4906249;29;20292;-68
2021/12/06 01:47:17;;;;;;;52.90;12.10;;;4.60;99.90;;;;;;4913755;29;20025;-67
2021/12/06 01:49:56;;;;;;;32.90;8.25;;;4.60;99.90;;;;;;4913520;29;20032;-69
2021/12/06 01:52:31;;;;;;;27.38;7.82;;;4.60;99.90;;;;;;4913171;29;20051;-67
2021/12/06 01:54:58;;;;;;;24.40;7.90;;;4.60;99.90;;;;;;4903531;29;20036;-68
2021/12/06 01:57:26;;;;;;;33.45;9.00;;;4.70;99.90;;;;;;4912036;29;20080;-68
2021/12/06 01:59:53;;;;;;;31.73;8.70;;;4.60;99.90;;;;;;4911188;29;20040;-69
2021/12/06 02:02:21;;;;;;;49.63;14.30;;;4.70;99.90;;;;;;4912682;29;20016;-68
2021/12/06 02:04:47;;;;;;;37.33;12.13;;;4.70;99.90;;;;;;4906471;29;20032;-68
2021/12/06 02:07:15;;;;;;;;;;;4.50;99.90;;;;;;4906271;29;20105;-68
2021/12/06 02:09:43;;;;;;;19.67;6.30;;;4.10;99.90;;;;;;4910650;29;19941;-68
2021/12/06 02:12:10;;;;;;;22.13;6.93;;;3.80;99.90;;;;;;4913183;29;20040;-67
2021/12/06 02:19:42;;;;;;;24.95;7.90;;;3.40;99.90;;;;;;4908209;29;20075;-66
2021/12/06 02:22:14;;;;;;;18.95;7.03;;;3.50;99.90;;;;;;4914697;29;20155;-68
2021/12/06 02:24:40;;;;;;;26.23;8.23;;;3.60;99.90;;;;;;4912254;29;20032;-69
2021/12/06 02:27:09;;;;;;;22.63;7.18;;;3.70;99.90;;;;;;4914687;29;20083;-68
2021/12/06 02:29:36;;;;;;;19.92;6.85;;;3.70;99.90;;;;;;4911563;29;20514;-67
2021/12/06 02:32:05;;;;;;;30.40;7.60;;;3.60;99.90;;;;;;4912066;29;20035;-68
2021/12/06 02:34:32;;;;;;;22.35;7.18;;;3.50;99.90;;;;;;4912780;29;20032;-68
2021/12/06 02:36:59;;;;;;;19.77;8.25;;;3.40;99.90;;;;;;4905528;29;20084;-68
2021/12/06 02:39:25;;;;;;;26.55;8.18;;;3.30;99.90;;;;;;4911166;29;20060;-69
2021/12/06 02:41:53;;;;;;;25.27;8.77;;;3.30;99.90;;;;;;4909479;29;20047;-67
2021/12/06 02:44:20;;;;;;;29.25;8.95;;;3.30;99.90;;;;;;4918393;29;20059;-67
2021/12/06 02:46:45;;;;;;;;;;;3.10;99.90;;;;;;4905771;29;20494;-69
2021/12/06 02:49:12;;;;;;;28.60;7.65;;;3.00;99.90;;;;;;4910128;29;20009;-68
2021/12/06 02:51:38;;;;;;;22.52;8.48;;;3.00;99.90;;;;;;4911402;29;20032;-68
2021/12/06 02:54:04;;;;;;;26.85;8.30;;;3.00;99.90;;;;;;4911702;29;20024;-69
2021/12/06 02:56:33;;;;;;;25.38;8.30;;;3.00;99.90;;;;;;4910629;29;20027;-67
2021/12/06 02:59:04;;;;;;;19.98;8.10;;;3.00;99.90;;;;;;4911468;29;20035;-67
2021/12/06 03:01:36;;;;;;;23.83;8.75;;;3.00;99.90;;;;;;4911540;29;20039;-67
2021/12/06 03:04:04;;;;;;;22.95;8.88;;;2.90;99.90;;;;;;4911430;29;20032;-69
2021/12/06 03:06:30;;;;;;;25.23;9.10;;;2.80;99.90;;;;;;4906545;29;20016;-69
2021/12/06 03:09:02;;;;;;;;;;;2.80;99.90;;;;;;4913131;29;20036;-69
2021/12/06 03:11:38;;;;;;;28.95;8.70;;;2.70;99.90;;;;;;4903652;29;20312;-68
2021/12/06 03:14:06;;;;;;;22.90;9.27;;;2.80;99.90;;;;;;4908614;29;20029;-68
2021/12/06 03:16:32;;;;;;;27.50;8.70;;;2.60;99.90;;;;;;4912468;29;20261;-67
2021/12/06 03:18:58;;;;;;;26.77;9.70;;;2.50;99.90;;;;;;4911167;29;20230;-67
2021/12/06 03:21:24;;;;;;;;;;;2.40;99.90;;;;;;4906642;29;20029;-67
2021/12/06 03:23:51;;;;;;;21.27;8.07;;;2.40;99.90;;;;;;4907502;29;20002;-69
2021/12/06 03:26:17;;;;;;;20.70;7.30;;;2.40;99.90;;;;;;4906634;29;20063;-68
2021/12/06 03:28:44;;;;;;;24.42;6.85;;;2.50;99.90;;;;;;4913648;29;20068;-69
2021/12/06 03:31:10;;;;;;;21.20;7.03;;;2.50;99.90;;;;;;4908286;29;20025;-69
2021/12/06 03:33:39;;;;;;;20.20;6.28;;;2.50;99.90;;;;;;4905577;29;20064;-67
2021/12/06 03:36:07;;;;;;;22.60;6.93;;;2.40;99.90;;;;;;4913165;29;20047;-67
2021/12/06 03:38:34;;;;;;;19.52;7.03;;;2.50;99.90;;;;;;4902024;29;20111;-69
2021/12/06 03:41:00;;;;;;;21.63;7.28;;;2.50;99.90;;;;;;4912593;29;20487;-67
2021/12/06 03:43:26;;;;;;;19.65;7.45;;;2.50;99.90;;;;;;4914757;29;20050;-67
2021/12/06 03:45:52;;;;;;;23.65;7.05;;;2.40;99.90;;;;;;4908751;29;20510;-69
2021/12/06 03:48:18;;;;;;;20.63;6.78;;;2.40;99.90;;;;;;4911991;29;20046;-68
2021/12/06 03:50:44;;;;;;;21.90;7.05;;;2.30;99.90;;;;;;4911611;29;20446;-68
2021/12/06 03:53:09;;;;;;;;;;;2.40;99.90;;;;;;4914211;29;20024;-69
2021/12/06 03:55:36;;;;;;;24.80;7.30;;;2.30;99.90;;;;;;4912407;29;20334;-67
2021/12/06 03:58:03;;;;;;;21.25;6.47;;;2.40;99.90;;;;;;4909146;29;20115;-69
2021/12/06 04:00:29;;;;;;;20.85;6.90;;;2.30;99.90;;;;;;4911182;29;20031;-68
2021/12/06 04:02:55;;;;;;;19.92;7.57;;;2.40;99.90;;;;;;4909612;29;20111;-69
2021/12/06 04:05:20;;;;;;;16.25;6.45;;;2.40;99.90;;;;;;4908720;29;20039;-67
2021/12/06 04:07:46;;;;;;;18.38;6.78;;;2.40;99.90;;;;;;4910321;29;20032;-67
2021/12/06 04:10:12;;;;;;;20.67;6.70;;;2.50;99.90;;;;;;4906489;29;20181;-68
2021/12/06 04:12:38;;;;;;;;;;;2.60;99.90;;;;;;4912702;29;20032;-67
2021/12/06 04:15:09;;;;;;;22.42;6.53;;;2.60;99.90;;;;;;4908292;29;19919;-69
2021/12/06 04:17:37;;;;;;;25.27;6.85;;;2.60;99.90;;;;;;4913224;29;20506;-69
2021/12/06 04:20:06;;;;;;;30.83;6.80;;;2.60;99.90;;;;;;4911202;29;20526;-68
2021/12/06 04:22:32;;;;;;;28.63;7.05;;;2.60;99.90;;;;;;4916933;29;20032;-68
2021/12/06 04:25:01;;;;;;;22.80;7.18;;;2.60;99.90;;;;;;4909751;29;20040;-70
2021/12/06 04:27:26;;;;;;;20.40;6.50;;;2.70;99.90;;;;;;4916863;29;20032;-67
2021/12/06 04:29:52;;;;;;;23.85;6.78;;;2.80;99.90;;;;;;4913467;29;20057;-68
2021/12/06 04:32:19;;;;;;;;;;;2.90;99.90;;;;;;4910219;29;20032;-68
2021/12/06 04:34:45;;;;;;;16.73;6.07;;;2.80;99.90;;;;;;4915736;29;19911;-69
2021/12/06 04:37:11;;;;;;;23.88;6.88;;;2.90;99.90;;;;;;4911981;29;20033;-68
2021/12/06 04:39:38;;;;;;;22.70;7.03;;;2.90;99.90;;;;;;4916719;29;20059;-67
2021/12/06 04:42:04;;;;;;;26.45;7.05;;;2.90;99.90;;;;;;4915631;29;20029;-67
2021/12/06 04:44:30;;;;;;;;;;;2.90;99.90;;;;;;4915285;29;20499;-68
2021/12/06 04:46:56;;;;;;;19.27;6.10;;;2.90;99.90;;;;;;4907100;29;19947;-68
2021/12/06 04:49:25;;;;;;;20.40;6.40;;;3.00;99.90;;;;;;4915067;29;20051;-68
2021/12/06 04:51:53;;;;;;;23.05;8.02;;;2.80;99.90;;;;;;4915471;29;20035;-67
2021/12/06 04:54:24;;;;;;;31.08;9.40;;;2.80;99.90;;;;;;4912623;29;20027;-68
2021/12/06 04:57:00;;;;;;;20.92;7.93;;;2.90;99.90;;;;;;4913699;29;20391;-69
2021/12/06 04:59:32;;;;;;;18.95;6.82;;;3.00;99.90;;;;;;4911676;29;20073;-69
2021/12/06 05:02:01;;;;;;;21.10;6.95;;;2.90;99.90;;;;;;4913942;29;20039;-68
2021/12/06 05:04:33;;;;;;;17.02;6.15;;;2.90;99.90;;;;;;4913776;29;20107;-67
2021/12/06 05:07:09;;;;;;;19.15;5.88;;;2.90;99.90;;;;;;4916770;29;20395;-67
2021/12/06 05:09:38;;;;;;;24.27;6.43;;;3.00;99.90;;;;;;4914653;29;20055;-67
2021/12/06 05:12:06;;;;;;;17.33;6.30;;;3.00;99.90;;;;;;4915618;29;20036;-68
2021/12/06 05:14:31;;;;;;;25.30;7.47;;;3.00;99.90;;;;;;4912633;29;20043;-68
2021/12/06 05:16:57;;;;;;;25.55;7.47;;;2.90;99.90;;;;;;4916505;29;20028;-68
2021/12/06 05:19:23;;;;;;;21.45;7.22;;;3.00;99.90;;;;;;4912435;29;20060;-67
2021/12/06 05:21:49;;;;;;;18.55;6.35;;;3.10;99.90;;;;;;4913899;29;20043;-68
2021/12/06 05:24:17;;;;;;;19.55;6.18;;;3.20;99.90;;;;;;4911448;29;20479;-68
2021/12/06 05:26:44;;;;;;;24.17;7.22;;;3.20;99.90;;;;;;4912138;29;20040;-67
2021/12/06 05:29:12;;;;;;;23.30;6.53;;;3.20;99.90;;;;;;4908882;29;20056;-67
2021/12/06 05:31:41;;;;;;;27.48;6.20;;;3.10;99.90;;;;;;4911999;29;20048;-68
2021/12/06 05:34:15;;;;;;;21.45;6.30;;;3.00;99.90;;;;;;4902941;29;20399;-68
2021/12/06 05:36:45;;;;;;;17.30;6.80;;;2.90;99.90;;;;;;4911029;29;20032;-68
2021/12/06 05:39:11;;;;;;;18.10;6.13;;;3.00;99.90;;;;;;4906529;29;20032;-68
2021/12/06 05:41:37;;;;;;;20.35;6.72;;;2.90;99.90;;;;;;4909304;29;20034;-67
2021/12/06 05:44:04;;;;;;;24.80;6.22;;;2.90;99.90;;;;;;4908080;29;20028;-67
2021/12/06 05:46:30;;;;;;;16.00;6.55;;;3.00;99.90;;;;;;4914170;29;20181;-67
2021/12/06 05:48:55;;;;;;;21.88;6.80;;;3.10;99.90;;;;;;4911820;29;20060;-68
2021/12/06 05:51:21;;;;;;;22.45;7.65;;;3.10;99.90;;;;;;4911189;29;20480;-67
2021/12/06 05:53:47;;;;;;;19.00;7.70;;;3.00;99.90;;;;;;4906903;29;20063;-69
2021/12/06 05:56:13;;;;;;;24.05;6.25;;;3.00;99.90;;;;;;4907488;29;20471;-68
2021/12/06 05:58:39;;;;;;;21.48;6.75;;;3.10;99.90;;;;;;4911272;29;20020;-68
2021/12/06 06:01:06;;;;;;;18.80;6.60;;;3.00;99.90;;;;;;4912501;29;20066;-69
2021/12/06 06:03:32;;;;;;;21.20;7.32;;;2.90;99.90;;;;;;4912807;29;20039;-67
2021/12/06 06:05:58;;;;;;;24.50;7.15;;;2.90;99.90;;;;;;4913164;29;20036;-69
2021/12/06 06:08:23;;;;;;;;;;;2.90;99.90;;;;;;4913671;29;20068;-68
2021/12/06 06:10:51;;;;;;;23.17;7.18;;;2.90;99.90;;;;;;4913361;29;19965;-69
2021/12/06 06:13:19;;;;;;;23.40;6.72;;;3.10;99.90;;;;;;4904832;29;20021;-69
2021/12/06 06:15:45;;;;;;;20.30;6.40;;;3.20;99.90;;;;;;4914429;29;20083;-68
2021/12/06 06:18:11;;;;;;;24.67;7.57;;;3.30;99.90;;;;;;4908499;29;20064;-69
2021/12/06 06:20:44;;;;;;;20.23;6.53;;;3.20;99.90;;;;;;4926430;29;20028;-69
2021/12/06 06:23:10;;;;;;;22.77;7.13;;;3.20;99.90;;;;;;4913221;29;20065;-69
2021/12/06 06:25:38;;;;;;;17.48;6.57;;;3.20;99.90;;;;;;4909826;29;20055;-68
2021/12/06 06:28:05;;;;;;;23.20;6.90;;;3.20;99.90;;;;;;4914671;29;20065;-68
2021/12/06 06:30:31;;;;;;;22.65;6.68;;;3.30;99.90;;;;;;4907382;29;20048;-68
2021/12/06 06:32:57;;;;;;;23.70;5.65;;;3.40;99.90;;;;;;4911899;29;20024;-69
2021/12/06 06:35:23;;;;;;;21.45;6.43;;;3.50;99.90;;;;;;4909152;29;20505;-67
2021/12/06 06:37:50;;;;;;;10.60;4.32;;;3.60;99.90;;;;;;4913003;29;20075;-68
2021/12/06 06:40:16;;;;;;;22.67;5.80;;;3.60;99.90;;;;;;4914021;29;20028;-68
2021/12/06 06:42:42;;;;;;;20.65;6.50;;;3.80;99.90;;;;;;4910150;29;20032;-67
2021/12/06 06:45:11;;;;;;;19.73;4.80;;;3.90;99.90;;;;;;4906597;29;20040;-69
2021/12/06 06:47:37;;;;;;;19.17;5.47;;;4.00;99.90;;;;;;4908014;29;20370;-68
2021/12/06 06:50:03;;;;;;;14.77;4.03;;;4.10;99.90;;;;;;4911765;29;20128;-68
2021/12/06 06:52:29;;;;;;;16.35;3.40;;;4.40;99.90;;;;;;4912775;29;20028;-66
2021/12/06 06:54:55;;;;;;;14.48;3.47;;;4.60;99.90;;;;;;4893636;29;20075;-68
2021/12/06 06:57:21;;;;;;;11.93;3.22;;;4.80;99.90;;;;;;4911011;29;20024;-69
2021/12/06 06:59:47;;;;;;;14.27;3.17;;;4.80;99.90;;;;;;4907202;29;20032;-68
2021/12/06 07:02:14;;;;;;;18.27;3.30;;;4.90;99.90;;;;;;4913088;29;20029;-67
2021/12/06 07:04:40;;;;;;;11.75;3.28;;;5.00;99.90;;;;;;4913555;29;20036;-68
2021/12/06 07:07:06;;;;;;;12.70;2.88;;;5.20;99.90;;;;;;4910952;29;20021;-68
2021/12/06 07:09:32;;;;;;;;;;;5.20;99.90;;;;;;4908486;29;20042;-69
2021/12/06 07:11:59;;;;;;;13.25;3.65;;;5.20;99.90;;;;;;4908613;29;20001;-67
2021/12/06 07:14:25;;;;;;;13.65;2.80;;;5.20;99.90;;;;;;4911833;29;20119;-67
2021/12/06 07:16:51;;;;;;;13.48;2.80;;;5.20;99.90;;;;;;4911709;29;20122;-69
2021/12/06 07:19:17;;;;;;;10.43;2.90;;;5.30;99.90;;;;;;4909885;29;20044;-68
2021/12/06 07:21:43;;;;;;;14.35;2.95;;;5.30;99.90;;;;;;4906000;29;20071;-68
2021/12/06 07:24:09;;;;;;;10.77;2.80;;;5.40;99.90;;;;;;4906832;29;20031;-69
2021/12/06 07:26:35;;;;;;;10.18;2.80;;;5.50;99.90;;;;;;4911625;29;20091;-68
2021/12/06 07:29:01;;;;;;;10.60;2.70;;;5.50;99.90;;;;;;4910671;29;20077;-68
2021/12/06 07:31:27;;;;;;;12.95;2.70;;;5.50;99.90;;;;;;4906881;29;20040;-68
2021/12/06 07:33:53;;;;;;;11.57;2.70;;;5.40;99.90;;;;;;4911405;29;20064;-69
2021/12/06 07:36:23;;;;;;;10.57;3.00;;;5.40;99.90;;;;;;4912210;29;20048;-69
2021/12/06 07:38:50;;;;;;;15.27;2.47;;;5.50;99.90;;;;;;4912845;29;20040;-69
2021/12/06 07:41:17;;;;;;;10.35;2.45;;;5.50;99.90;;;;;;4907618;29;20428;-70
2021/12/06 07:43:43;;;;;;;12.50;3.33;;;5.60;99.90;;;;;;4916079;29;20028;-69
2021/12/06 07:46:09;;;;;;;11.18;2.58;;;5.60;99.90;;;;;;4914362;29;20035;-69
2021/12/06 07:48:38;;;;;;;10.32;2.83;;;5.60;99.90;;;;;;4912705;29;20047;-69
2021/12/06 07:51:05;;;;;;;9.38;2.55;;;5.60;99.90;;;;;;4911296;29;20031;-70
2021/12/06 07:53:32;;;;;;;11.82;2.08;;;5.60;99.90;;;;;;4911996;29;20024;-72
2021/12/06 07:55:58;;;;;;;11.18;2.22;;;5.70;99.90;;;;;;4905383;29;20719;-70
2021/12/06 07:58:25;;;;;;;15.70;2.83;;;5.70;99.90;;;;;;4914320;29;20024;-71
2021/12/06 08:00:52;;;;;;;9.70;2.10;;;5.70;99.90;;;;;;4907163;29;20163;-70
2021/12/06 08:03:20;;;;;;;10.65;2.30;;;5.70;99.90;;;;;;4916222;29;20021;-70
2021/12/06 08:05:48;;;;;;;12.10;2.25;;;5.70;99.90;;;;;;4916722;29;20401;-70
2021/12/06 08:08:17;;;;;;;11.18;2.65;;;5.70;99.90;;;;;;4915225;29;20043;-70
2021/12/06 08:10:50;;;;;;;12.38;2.53;;;5.80;99.90;;;;;;4910569;29;20398;-69
2021/12/06 08:13:18;;;;;;;10.80;2.40;;;5.70;99.90;;;;;;4912897;29;20028;-70
2021/12/06 08:15:45;;;;;;;13.57;2.33;;;5.70;99.90;;;;;;4915613;29;20036;-71
2021/12/06 08:18:11;;;;;;;11.95;2.22;;;5.80;99.90;;;;;;4914586;29;20337;-70
2021/12/06 08:20:37;;;;;;;;;;;5.80;99.90;;;;;;4916481;29;20040;-72
2021/12/06 08:23:05;;;;;;;9.35;2.20;;;5.90;99.90;;;;;;4914839;29;20365;-71
2021/12/06 08:25:32;;;;;;;12.60;2.78;;;5.90;99.90;;;;;;4915240;29;20032;-70
2021/12/06 08:27:58;;;;;;;12.07;2.60;;;6.00;99.90;;;;;;4913447;29;20039;-70
2021/12/06 08:30:25;;;;;;;;;;;6.00;99.90;;;;;;4917445;29;20054;-70
2021/12/06 08:32:53;;;;;;;9.73;2.33;;;6.10;99.90;;;;;;4912129;29;19943;-69
2021/12/06 08:35:19;;;;;;;11.13;2.65;;;6.00;99.90;;;;;;4912347;29;20495;-71
2021/12/06 08:37:46;;;;;;;8.13;2.47;;;6.10;99.90;;;;;;4916541;29;20032;-72
2021/12/06 08:40:13;;;;;;;7.57;2.50;;;6.10;99.90;;;;;;4915914;29;20052;-70
2021/12/06 08:42:39;;;;;;;8.75;2.45;;;6.20;99.90;;;;;;4921082;29;20574;-70
2021/12/06 08:45:06;;;;;;;12.55;2.30;;;6.30;99.90;;;;;;4916028;29;20071;-71
2021/12/06 08:47:32;;;;;;;10.40;3.00;;;6.30;99.90;;;;;;4915458;29;20348;-72
2021/12/06 08:49:57;;;;;;;7.63;2.60;;;6.30;99.90;;;;;;4913874;29;20040;-71
2021/12/06 08:52:23;;;;;;;10.65;2.83;;;6.20;99.90;;;;;;4913212;29;20043;-71
2021/12/06 08:54:49;;;;;;;16.25;2.50;;;6.40;99.90;;;;;;4906974;29;20495;-71
2021/12/06 08:57:15;;;;;;;10.95;2.40;;;6.50;99.90;;;;;;4915007;29;20494;-70
2021/12/06 08:59:41;;;;;;;12.90;2.60;;;6.50;99.90;;;;;;4910911;29;20541;-69
2021/12/06 09:02:07;;;;;;;7.22;2.15;;;6.50;99.90;;;;;;4912917;29;20032;-70
2021/12/06 09:04:37;;;;;;;5.18;2.03;;;6.40;99.90;;;;;;4912995;29;20029;-71
2021/12/06 09:07:13;;;;;;;7.55;2.25;;;6.30;99.90;;;;;;4911832;29;20435;-71
2021/12/06 09:09:46;;;;;;;16.00;2.83;;;6.20;99.90;;;;;;4911725;29;20099;-70
2021/12/06 09:12:24;;;;;;;9.32;2.30;;;6.30;99.90;;;;;;4908890;29;20431;-69
2021/12/06 09:14:51;;;;;;;7.85;2.00;;;6.30;99.90;;;;;;4908901;29;20076;-70
2021/12/06 09:17:17;;;;;;;14.98;2.55;;;6.40;99.90;;;;;;4913270;29;20471;-69
2021/12/06 09:19:43;;;;;;;7.28;2.10;;;6.40;99.90;;;;;;4910317;29;20076;-68
2021/12/06 09:22:09;;;;;;;7.75;2.08;;;6.50;99.90;;;;;;4915151;29;20040;-70
2021/12/06 09:24:35;;;;;;;8.07;2.03;;;6.50;99.90;;;;;;4912148;29;20936;-71
2021/12/06 09:27:02;;;;;;;10.68;2.20;;;6.50;99.90;;;;;;4914613;29;20601;-69
2021/12/06 09:29:29;;;;;;;16.05;2.80;;;6.60;99.90;;;;;;4904947;29;20427;-70
2021/12/06 09:31:59;;;;;;;13.77;2.40;;;6.60;99.90;;;;;;4912810;29;20537;-69
2021/12/06 09:34:27;;;;;;;13.32;2.60;;;6.60;99.90;;;;;;4911391;29;20054;-71
2021/12/06 09:36:53;;;;;;;13.73;2.70;;;6.60;99.90;;;;;;4914122;29;20052;-71
2021/12/06 09:39:19;;;;;;;;;;;6.70;99.90;;;;;;4913997;29;20028;-71
2021/12/06 09:41:45;;;;;;;13.73;3.00;;;6.80;99.90;;;;;;4914139;29;19910;-69
2021/12/06 09:44:10;;;;;;;13.23;2.60;;;6.70;99.90;;;;;;4905322;29;20032;-69
2021/12/06 09:46:38;;;;;;;19.50;3.00;;;6.70;99.90;;;;;;4912538;29;20039;-69
2021/12/06 09:49:10;;;;;;;8.60;2.28;;;6.70;99.90;;;;;;4909280;29;20028;-71
2021/12/06 09:51:39;;;;;;;16.13;3.03;;;6.90;99.90;;;;;;4907080;29;20033;-70
2021/12/06 09:54:05;;;;;;;15.40;2.70;;;6.80;99.90;;;;;;4907802;29;20087;-70
2021/12/06 09:56:34;;;;;;;;;;;6.70;99.90;;;;;;4910922;29;20021;-70
2021/12/06 09:59:03;;;;;;;17.52;2.80;;;6.60;99.90;;;;;;4914330;29;19996;-69
2021/12/06 10:01:34;;;;;;;15.85;3.05;;;6.70;99.90;;;;;;4907223;29;20035;-70
2021/12/06 10:04:02;;;;;;;8.55;2.50;;;6.80;99.90;;;;;;4909128;29;20031;-70
2021/12/06 10:06:30;;;;;;;19.48;2.97;;;6.70;99.90;;;;;;4912380;29;20028;-71
2021/12/06 10:08:59;;;;;;;18.85;3.35;;;6.80;99.90;;;;;;4913408;29;20028;-71
2021/12/06 10:11:26;;;;;;;8.10;2.60;;;6.70;99.90;;;;;;4907878;29;20028;-70
2021/12/06 10:13:54;;;;;;;11.55;2.67;;;6.70;99.90;;;;;;4905883;29;20391;-70
2021/12/06 10:16:21;;;;;;;7.20;2.70;;;6.70;99.90;;;;;;4909751;29;20095;-71
2021/12/06 10:18:47;;;;;;;13.35;2.60;;;6.60;99.90;;;;;;4905033;29;20052;-71
2021/12/06 10:21:13;;;;;;;11.70;2.78;;;6.60;99.90;;;;;;4907268;29;20090;-69
2021/12/06 10:23:42;;;;;;;9.90;3.80;;;6.60;99.90;;;;;;4908208;29;20127;-69
2021/12/06 10:26:11;;;;;;;12.73;2.83;;;6.70;99.90;;;;;;4906966;29;20035;-71
2021/12/06 10:28:41;;;;;;;15.23;3.60;;;6.80;99.90;;;;;;4911714;29;20040;-70
2021/12/06 10:31:08;;;;;;;10.77;2.58;;;6.80;99.90;;;;;;4907345;29;20044;-69
2021/12/06 10:33:41;;;;;;;10.98;2.90;;;6.80;99.90;;;;;;4912488;29;20521;-70
2021/12/06 10:36:09;;;;;;;17.88;3.53;;;6.80;99.90;;;;;;4905556;29;20059;-71
2021/12/06 10:38:39;;;;;;;13.10;3.05;;;6.90;99.90;;;;;;4913662;29;20119;-70
2021/12/06 10:41:17;;;;;;;15.48;3.03;;;6.90;99.90;;;;;;4910247;29;20075;-70
2021/12/06 10:43:54;;;;;;;9.75;2.92;;;6.90;99.90;;;;;;4912863;29;20055;-69
2021/12/06 10:46:21;;;;;;;16.73;2.90;;;6.90;99.90;;;;;;4913127;29;20110;-70
2021/12/06 10:48:47;;;;;;;12.95;3.00;;;6.90;99.90;;;;;;4912730;29;20094;-70
2021/12/06 10:51:17;;;;;;;14.55;3.10;;;7.00;99.90;;;;;;4911955;29;20427;-70
2021/12/06 10:53:57;;;;;;;12.05;2.60;;;7.10;99.90;;;;;;4902687;29;20038;-71
2021/12/06 10:56:32;;;;;;;9.80;2.00;;;7.10;99.90;;;;;;4910249;29;20040;-69
2021/12/06 10:59:03;;;;;;;7.28;1.48;;;7.10;99.90;;;;;;4911002;29;20431;-72
2021/12/06 11:01:31;;;;;;;11.00;2.15;;;7.20;99.90;;;;;;4911870;29;20037;-71
2021/12/06 11:03:59;;;;;;;7.68;2.28;;;7.20;99.90;;;;;;4907708;29;20475;-70
2021/12/06 11:06:30;;;;;;;11.93;2.10;;;7.30;99.90;;;;;;4907663;29;20336;-69
2021/12/06 11:09:02;;;;;;;9.35;2.90;;;7.40;99.90;;;;;;4907761;29;20036;-70
2021/12/06 11:11:36;;;;;;;14.75;3.88;;;7.40;99.90;;;;;;4905557;29;20029;-70
2021/12/06 11:14:08;;;;;;;10.40;2.30;;;7.50;99.90;;;;;;4901605;29;20032;-70
2021/12/06 11:16:43;;;;;;;11.02;2.33;;;7.50;99.90;;;;;;4906834;29;20062;-70
2021/12/06 11:19:12;;;;;;;8.43;2.20;;;7.60;99.90;;;;;;4911341;29;20032;-69
2021/12/06 11:21:54;;;;;;;8.93;2.22;;;7.60;99.90;;;;;;4898977;29;20041;-69
2021/12/06 11:24:38;;;;;;;5.65;1.90;;;7.70;99.90;;;;;;4910952;29;20107;-69
2021/12/06 11:27:10;;;;;;;6.95;1.92;;;7.80;99.90;;;;;;4909753;29;20084;-71
2021/12/06 11:29:46;;;;;;;8.82;1.85;;;8.00;99.90;;;;;;4911023;29;20054;-71
2021/12/06 11:32:26;;;;;;;8.40;1.85;;;8.10;99.90;;;;;;4912006;29;20504;-71
2021/12/06 11:34:55;;;;;;;5.07;1.50;;;8.20;99.90;;;;;;4914394;29;20028;-72
2021/12/06 11:37:25;;;;;;;8.90;1.40;;;8.30;99.90;;;;;;4915790;29;20028;-70
2021/12/06 11:40:24;;;;;;;8.63;1.67;;;8.40;99.90;;;;;;4914067;29;20028;-71
2021/12/06 11:42:56;;;;;;;12.73;1.92;;;8.50;99.90;;;;;;4904851;29;20037;-70
2021/12/06 11:45:48;;;;;;;8.40;2.00;;;8.50;99.90;;;;;;4915320;29;20040;-70
2021/12/06 11:48:17;;;;;;;7.82;1.52;;;8.50;99.90;;;;;;4910551;29;20032;-71
2021/12/06 11:51:10;;;;;;;6.15;1.75;;;8.60;99.90;;;;;;4911291;29;20035;-69
2021/12/06 11:53:37;;;;;;;8.20;2.05;;;8.60;99.90;;;;;;4911178;29;20051;-69
2021/12/06 11:56:12;;;;;;;11.40;2.13;;;8.70;99.90;;;;;;4911300;29;20036;-70
2021/12/06 11:58:46;;;;;;;9.57;1.75;;;8.90;99.90;;;;;;4909003;29;20083;-70
2021/12/06 12:01:16;;;;;;;13.00;2.25;;;9.00;99.90;;;;;;4925472;29;20035;-71
2021/12/06 12:03:44;;;;;;;13.90;1.98;;;9.10;99.90;;;;;;4915732;29;20032;-70
2021/12/06 12:06:29;;;;;;;9.73;2.58;;;9.20;99.90;;;;;;4911533;29;20103;-71
2021/12/06 12:09:13;;;;;;;13.35;2.60;;;9.30;99.90;;;;;;4910827;29;20036;-70
2021/12/06 12:12:07;;;;;;;16.92;2.45;;;9.40;99.90;;;;;;4911620;29;20047;-70
2021/12/06 12:14:45;;;;;;;8.10;1.65;;;9.40;99.90;;;;;;4914666;29;20032;-70
2021/12/06 12:17:18;;;;;;;16.40;2.55;;;9.50;99.90;;;;;;4908387;29;20608;-69
2021/12/06 12:19:46;;;;;;;18.35;2.67;;;9.60;99.90;;;;;;4910042;29;20362;-69
2021/12/06 12:22:13;;;;;;;22.52;2.35;;;9.70;99.90;;;;;;4912040;29;20032;-70
2021/12/06 12:24:42;;;;;;;15.25;2.00;;;9.70;99.90;;;;;;4909141;29;20080;-69
2021/12/06 12:27:21;;;;;;;14.48;2.40;;;9.80;99.90;;;;;;4910864;29;20040;-70
2021/12/06 12:29:49;;;;;;;15.57;2.35;;;9.90;99.90;;;;;;4908412;29;20052;-70
2021/12/06 12:32:16;;;;;;;20.25;3.00;;;9.90;99.90;;;;;;4913321;29;20028;-69
2021/12/06 12:34:45;;;;;;;16.27;2.67;;;10.00;99.90;;;;;;4912297;29;20039;-68
2021/12/06 12:37:14;;;;;;;22.83;3.28;;;10.00;99.90;;;;;;4913658;29;20080;-71
2021/12/06 12:39:40;;;;;;;15.02;3.10;;;10.00;99.90;;;;;;4910455;29;20028;-71
2021/12/06 12:42:07;;;;;;;;;;;10.00;99.90;;;;;;4916903;29;20103;-70
2021/12/06 12:44:48;;;;;;;23.25;2.60;;;10.00;99.90;;;;;;4910736;29;19997;-70
2021/12/06 12:47:17;;;;;;;25.98;2.67;;;10.00;99.90;;;;;;4912533;29;20039;-70
2021/12/06 12:49:48;;;;;;;21.00;3.45;;;10.10;99.90;;;;;;4913795;29;20155;-70
2021/12/06 12:52:15;;;;;;;12.23;2.40;;;10.10;99.90;;;;;;4909450;29;20039;-72
2021/12/06 12:54:45;;;;;;;23.40;3.40;;;10.10;99.90;;;;;;4913886;29;20522;-72
2021/12/06 12:57:16;;;;;;;15.60;2.47;;;10.10;99.90;;;;;;4917818;29;20024;-71
2021/12/06 12:59:50;;;;;;;18.95;2.05;;;10.10;99.90;;;;;;4906243;29;20451;-71
2021/12/06 13:02:24;;;;;;;18.25;2.60;;;10.00;99.90;;;;;;4910029;29;20124;-71
2021/12/06 13:04:59;;;;;;;15.73;3.15;;;10.00;99.90;;;;;;4911685;29;20144;-71
2021/12/06 13:07:41;;;;;;;22.52;2.65;;;10.00;99.90;;;;;;4927105;29;20041;-69
2021/12/06 13:10:29;;;;;;;22.67;2.63;;;10.00;99.90;;;;;;4906653;29;20032;-70
2021/12/06 13:13:01;;;;;;;18.05;2.85;;;9.90;99.90;;;;;;4914388;29;20079;-70
2021/12/06 13:15:54;;;;;;;22.05;2.83;;;9.90;99.90;;;;;;4907542;29;20028;-71